Time;durP1;ratioP1;P1;durP2;ratioP2;P2;SDS_P1;SDS_P2;PMS_P1;PMS_P2;Temp;Humidity;BMP_temperature;BMP_pressure;BME280_temperature;BME280_humidity;BME280_pressure;Samples;Min_cycle;Max_cycle;Signal;HPM_P1;HPM_P2
2022/11/03 00:01:36;;;;;;;14.52;2.53;;;;;;;10.10;93.67;101363.69;6212358;23;20320;-81
2022/11/03 00:04:03;;;;;;;15.53;2.10;;;;;;;10.13;93.51;101360.53;6213088;23;20038;-80
2022/11/03 00:06:28;;;;;;;14.37;2.00;;;;;;;10.08;93.25;101357.75;6213435;23;20239;-81
2022/11/03 00:08:57;;;;;;;16.30;2.28;;;;;;;10.06;93.63;101357.19;6212207;23;20011;-81
2022/11/03 00:11:23;;;;;;;14.87;2.20;;;;;;;10.07;93.75;101351.56;6212186;23;20005;-81
2022/11/03 00:13:48;;;;;;;13.60;2.53;;;;;;;10.14;93.47;101359.44;6212939;23;20310;-81
2022/11/03 00:16:13;;;;;;;15.37;2.10;;;;;;;10.17;92.90;101355.50;6212921;23;20576;-80
2022/11/03 00:18:39;;;;;;;16.33;2.00;;;;;;;10.17;93.00;101350.13;6212563;23;20015;-81
2022/11/03 00:21:11;;;;;;;14.45;2.20;;;;;;;10.20;93.39;101347.78;6211798;23;20005;-80
2022/11/03 00:23:39;;;;;;;13.13;1.98;;;;;;;10.15;92.91;101348.50;6212546;23;19997;-80
2022/11/03 00:26:22;;;;;;;9.83;1.73;;;;;;;10.09;93.05;101346.00;6212986;23;20074;-81
2022/11/03 00:28:50;;;;;;;12.13;1.87;;;;;;;10.14;92.55;101335.34;6211863;23;20250;-81
2022/11/03 00:31:19;;;;;;;10.57;1.70;;;;;;;10.26;92.38;101340.63;6212729;23;20004;-81
2022/11/03 00:33:46;;;;;;;13.35;1.98;;;;;;;10.29;91.83;101338.31;6212642;23;20440;-81
2022/11/03 00:36:14;;;;;;;9.02;1.67;;;;;;;10.26;91.77;101324.56;6211983;23;20012;-81
2022/11/03 00:38:41;;;;;;;14.43;1.83;;;;;;;10.29;91.58;101329.44;6212572;23;20446;-81
2022/11/03 00:41:06;;;;;;;14.68;1.98;;;;;;;10.31;91.39;101324.66;6211876;23;20091;-81
2022/11/03 00:43:33;;;;;;;16.43;2.17;;;;;;;10.28;91.83;101323.28;6212766;23;20095;-80
2022/11/03 00:45:59;;;;;;;15.50;1.88;;;;;;;10.25;91.86;101314.91;6212727;23;20004;-81
2022/11/03 00:48:28;;;;;;;13.95;1.88;;;;;;;10.28;91.77;101304.53;6212323;23;20610;-81
2022/11/03 00:51:19;;;;;;;15.85;2.35;;;;;;;10.34;91.41;101299.22;6211937;23;20005;-80
2022/11/03 00:53:47;;;;;;;14.20;2.00;;;;;;;10.35;91.77;101304.38;6203217;23;20011;-81
2022/11/03 00:56:15;;;;;;;14.47;2.13;;;;;;;10.37;91.59;101302.25;6211959;23;20042;-81
2022/11/03 00:58:41;;;;;;;11.27;2.00;;;;;;;10.37;91.27;101299.56;6212444;23;20758;-81
2022/11/03 01:01:10;;;;;;;12.23;1.73;;;;;;;10.35;91.56;101290.97;6211174;23;20001;-81
2022/11/03 01:03:37;;;;;;;15.35;1.90;;;;;;;10.33;91.71;101289.56;6212539;23;20080;-81
2022/11/03 01:08:52;;;;;;;12.73;2.03;;;;;;;10.27;91.78;101275.28;6211833;23;20259;-81
2022/11/03 01:14:04;;;;;;;9.10;2.05;;;;;;;10.26;91.80;101277.19;6212073;23;20490;-81
2022/11/03 01:16:29;;;;;;;21.00;2.60;;;;;;;10.27;92.13;101260.06;6211984;23;20000;-81
2022/11/03 01:18:55;;;;;;;11.00;1.65;;;;;;;10.34;91.71;101265.25;6211524;23;20008;-81
2022/11/03 01:21:21;;;;;;;13.03;2.10;;;;;;;10.48;91.28;101267.59;6211976;23;20078;-81
2022/11/03 01:23:48;;;;;;;15.57;1.88;;;;;;;10.57;90.61;101268.81;6212530;23;20000;-81
2022/11/03 01:26:13;;;;;;;14.88;1.80;;;;;;;10.58;90.70;101265.06;6211580;23;20005;-80
2022/11/03 01:28:41;;;;;;;13.57;2.17;;;;;;;10.56;90.44;101259.94;6211804;23;20018;-80
2022/11/03 01:31:09;;;;;;;11.30;2.13;;;;;;;10.61;90.20;101256.53;6210500;23;20012;-80
2022/11/03 01:33:34;;;;;;;15.68;2.13;;;;;;;10.61;90.12;101251.16;6213289;23;20838;-81
2022/11/03 01:36:00;;;;;;;16.30;1.83;;;;;;;10.61;90.19;101248.47;6214150;23;20000;-80
2022/11/03 01:38:26;;;;;;;10.68;1.80;;;;;;;10.58;90.21;101247.13;6217308;23;20012;-80
2022/11/03 01:40:51;;;;;;;11.40;1.75;;;;;;;10.59;90.55;101245.25;6213735;23;20000;-80
2022/11/03 01:43:20;;;;;;;12.97;2.33;;;;;;;10.58;90.81;101251.69;6213591;23;20008;-80
2022/11/03 01:45:48;;;;;;;16.10;2.05;;;;;;;10.54;90.88;101235.25;6212904;23;20004;-82
2022/11/03 01:48:16;;;;;;;9.65;1.88;;;;;;;10.44;91.11;101229.78;6212040;23;20008;-82
2022/11/03 01:50:44;;;;;;;10.93;1.70;;;;;;;10.33;91.75;101234.16;6211196;23;20087;-82
2022/11/03 01:53:12;;;;;;;12.10;1.87;;;;;;;10.37;92.47;101216.53;6185543;23;20790;-82
2022/11/03 01:55:40;;;;;;;15.80;2.30;;;;;;;10.45;92.84;101208.09;6211945;23;20032;-82
2022/11/03 01:58:22;;;;;;;10.85;1.63;;;;;;;10.50;92.26;101214.56;6211792;23;20563;-82
2022/11/03 02:00:51;;;;;;;10.73;1.95;;;;;;;10.53;92.43;101214.09;6210896;23;20028;-82
2022/11/03 02:03:17;;;;;;;16.00;2.17;;;;;;;10.52;92.49;101215.94;6211763;23;20662;-81
2022/11/03 02:05:45;;;;;;;15.35;2.13;;;;;;;10.52;92.52;101209.78;6211612;23;20009;-82
2022/11/03 02:08:18;;;;;;;13.45;2.30;;;;;;;10.44;92.94;101209.16;6210678;23;20040;-82
2022/11/03 02:10:47;;;;;;;9.98;1.73;;;;;;;10.35;93.11;101199.91;6211513;23;20004;-82
2022/11/03 02:13:22;;;;;;;11.57;2.08;;;;;;;10.39;93.10;101205.59;6211584;23;20016;-81
2022/11/03 02:15:54;;;;;;;10.83;1.90;;;;;;;10.38;93.10;101204.78;6211728;23;20028;-81
2022/11/03 02:18:23;;;;;;;9.23;1.70;;;;;;;10.35;93.24;101204.44;6210560;23;20779;-81
2022/11/03 02:20:56;;;;;;;17.05;2.40;;;;;;;10.28;93.64;101175.97;6210633;23;20017;-82
2022/11/03 02:23:43;;;;;;;11.48;2.03;;;;;;;10.32;93.56;101192.34;6211425;23;20005;-82
2022/11/03 02:26:11;;;;;;;13.70;2.28;;;;;;;10.29;93.91;101180.28;6209370;23;20040;-82
2022/11/03 02:28:36;;;;;;;9.70;2.03;;;;;;;10.28;94.27;101180.50;6211893;23;20440;-81
2022/11/03 02:31:01;;;;;;;13.20;1.97;;;;;;;10.33;94.08;101171.72;6211256;23;20040;-82
2022/11/03 02:33:56;;;;;;;13.10;2.20;;;;;;;10.42;93.90;101176.44;6211491;23;20329;-81
2022/11/03 02:36:25;;;;;;;8.68;1.75;;;;;;;10.54;93.24;101159.44;6212171;23;20008;-82
2022/11/03 02:39:14;;;;;;;14.10;2.25;;;;;;;10.60;92.59;101161.09;6211429;23;20008;-81
2022/11/03 02:41:42;;;;;;;14.02;2.08;;;;;;;10.47;92.94;101146.25;6195294;23;20016;-82
2022/11/03 02:44:15;;;;;;;10.80;1.92;;;;;;;10.50;93.22;101161.00;6210995;23;20127;-81
2022/11/03 02:46:43;;;;;;;9.60;2.10;;;;;;;10.52;93.44;101145.47;6211651;23;20005;-81
2022/11/03 02:49:08;;;;;;;11.40;1.77;;;;;;;10.47;93.16;101143.56;6211347;23;20087;-81
2022/11/03 02:51:33;;;;;;;8.70;2.23;;;;;;;10.50;93.87;101136.88;6210351;23;20009;-81
2022/11/03 02:54:15;;;;;;;15.97;1.90;;;;;;;10.49;93.69;101137.94;6211770;23;20047;-82
2022/11/03 02:56:58;;;;;;;12.57;1.83;;;;;;;10.45;93.90;101130.41;6212098;23;20008;-81
2022/11/03 02:59:29;;;;;;;12.30;1.98;;;;;;;10.48;93.94;101137.13;6211556;23;20040;-82
2022/11/03 03:02:03;;;;;;;13.98;1.85;;;;;;;10.51;94.00;101120.53;6210496;23;20004;-81
2022/11/03 03:04:39;;;;;;;15.27;1.85;;;;;;;10.55;93.83;101128.91;6211497;23;20030;-81
2022/11/03 03:07:16;;;;;;;11.98;1.80;;;;;;;10.52;93.95;101122.16;6212454;23;20091;-81
2022/11/03 03:09:57;;;;;;;13.38;2.17;;;;;;;10.47;94.51;101121.28;6211266;23;20009;-81
2022/11/03 03:12:24;;;;;;;12.63;1.90;;;;;;;10.51;94.22;101104.47;6211613;23;20001;-82
2022/11/03 03:14:51;;;;;;;7.30;1.80;;;;;;;10.51;94.68;101106.34;6211009;23;20232;-81
2022/11/03 03:17:40;;;;;;;10.90;1.85;;;;;;;10.52;94.78;101110.66;6210321;23;20011;-81
2022/11/03 03:20:12;;;;;;;11.05;1.83;;;;;;;10.59;94.61;101105.91;6209758;23;20009;-81
2022/11/03 03:22:51;;;;;;;13.02;1.92;;;;;;;10.69;94.07;101110.56;6211747;23;20008;-82
2022/11/03 03:25:28;;;;;;;11.00;1.80;;;;;;;10.71;94.03;101098.53;6211118;23;20009;-82
2022/11/03 03:28:29;;;;;;;12.07;1.80;;;;;;;10.73;94.15;101084.88;6211018;23;20451;-82
2022/11/03 03:30:58;;;;;;;14.18;2.17;;;;;;;10.85;93.76;101074.00;6205636;23;20084;-82
2022/11/03 03:33:26;;;;;;;15.10;1.98;;;;;;;10.83;93.69;101094.88;6220287;23;20020;-82
2022/11/03 03:35:53;;;;;;;8.57;1.80;;;;;;;10.81;94.06;101083.63;6227557;23;20005;-81
2022/11/03 03:38:24;;;;;;;13.20;2.07;;;;;;;10.71;94.00;101074.41;6214393;23;20047;-81
2022/11/03 03:40:53;;;;;;;11.93;3.33;;;;;;;10.69;94.69;101089.94;6213866;23;20923;-82
2022/11/03 03:43:21;;;;;;;15.57;2.15;;;;;;;10.65;94.62;101088.81;6213060;23;20011;-82
2022/11/03 03:45:50;;;;;;;11.05;1.90;;;;;;;10.65;95.73;101085.34;6213911;23;20516;-83
2022/11/03 03:48:16;;;;;;;7.82;1.95;;;;;;;10.59;95.23;101063.03;6213492;23;20406;-83
2022/11/03 03:50:44;;;;;;;13.95;2.33;;;;;;;10.72;95.50;101072.53;6213015;23;20090;-83
2022/11/03 03:53:11;;;;;;;9.30;1.90;;;;;;;10.76;95.20;101065.63;6213559;23;20647;-83
2022/11/03 03:55:41;;;;;;;10.40;2.07;;;;;;;10.74;94.80;101054.34;6213073;23;20235;-82
2022/11/03 03:58:10;;;;;;;10.32;2.20;;;;;;;10.78;95.55;101055.44;6187316;23;20056;-82
2022/11/03 04:00:38;;;;;;;12.02;2.00;;;;;;;10.81;95.06;101049.59;6210729;23;20011;-82
2022/11/03 04:03:05;;;;;;;6.97;1.58;;;;;;;10.78;95.08;101033.19;6185765;23;20011;-82
2022/11/03 04:05:30;;;;;;;10.57;2.30;;;;;;;10.83;95.23;101036.75;6213169;23;20015;-80
2022/11/03 04:07:57;;;;;;;9.63;1.90;;;;;;;10.87;95.17;101045.06;6211239;23;20009;-81
2022/11/03 04:10:23;;;;;;;11.18;2.30;;;;;;;10.90;95.10;101047.25;6212617;23;20383;-81
2022/11/03 04:23:48;;;;;;;11.93;1.83;;;;;;;10.82;95.66;101036.97;6215271;23;20016;-82
2022/11/03 04:26:16;;;;;;;7.47;1.80;;;;;;;10.81;96.00;101035.34;6218469;23;20076;-82
2022/11/03 04:28:41;;;;;;;13.95;2.03;;;;;;;10.81;96.28;101038.03;6216221;23;20011;-82
2022/11/03 04:31:12;;;;;;;13.70;1.97;;;;;;;10.79;96.81;101035.63;6215970;23;20040;-82
2022/11/03 04:33:40;;;;;;;11.25;1.80;;;;;;;10.77;96.74;101019.00;6212545;23;20000;-82
2022/11/03 04:36:18;;;;;;;12.13;1.70;;;;;;;10.74;96.94;101017.63;6212892;23;20015;-82
2022/11/03 04:38:43;;;;;;;8.27;1.67;;;;;;;10.80;97.33;101017.66;6213407;23;20099;-81
2022/11/03 04:41:15;;;;;;;12.88;2.20;;;;;;;10.74;97.38;101014.13;6211826;23;20032;-80
2022/11/03 04:43:41;;;;;;;7.20;2.00;;;;;;;10.74;97.80;101009.59;6213901;23;20298;-82
2022/11/03 04:46:10;;;;;;;13.53;2.23;;;;;;;10.70;98.02;101010.34;6212485;23;20240;-84
2022/11/03 04:48:35;;;;;;;10.27;1.92;;;;;;;10.73;98.24;101009.84;6212444;23;20062;-84
2022/11/03 04:51:12;;;;;;;10.47;1.90;;;;;;;10.64;98.25;101006.00;6183754;23;19992;-84
2022/11/03 04:53:40;;;;;;;11.45;2.05;;;;;;;10.59;99.00;101001.41;6212783;23;20000;-84
2022/11/03 04:56:14;;;;;;;10.80;2.30;;;;;;;10.63;99.32;100999.81;6211212;23;20004;-84
2022/11/03 04:58:39;;;;;;;12.35;2.20;;;;;;;10.68;99.73;101007.91;6213221;23;20005;-84
2022/11/03 05:01:11;;;;;;;14.20;2.30;;;;;;;10.59;99.59;100996.84;6184768;23;20015;-83
2022/11/03 05:03:39;;;;;;;10.77;2.17;;;;;;;10.72;100.00;100995.63;6212509;23;20248;-83
2022/11/03 05:06:28;;;;;;;13.70;1.92;;;;;;;10.70;99.83;100994.25;6212067;23;20004;-82
2022/11/03 05:09:09;;;;;;;8.32;1.60;;;;;;;10.71;99.70;100990.50;6211723;23;20004;-82
2022/11/03 05:11:41;;;;;;;11.05;1.92;;;;;;;10.70;100.00;100991.56;6212390;23;20008;-82
2022/11/03 05:14:33;;;;;;;8.82;2.00;;;;;;;10.69;100.00;100977.38;6211665;23;20059;-83
2022/11/03 05:17:01;;;;;;;8.38;1.60;;;;;;;10.71;100.00;100983.28;6209576;23;20091;-84
2022/11/03 05:19:32;;;;;;;13.35;2.10;;;;;;;10.63;100.00;100964.97;6211888;23;20005;-83
2022/11/03 05:21:59;;;;;;;12.52;2.10;;;;;;;10.69;100.00;100969.34;6211725;23;20016;-84
2022/11/03 05:24:25;;;;;;;13.75;2.47;;;;;;;10.71;100.00;100966.38;6212496;23;20012;-84
2022/11/03 05:26:51;;;;;;;12.10;2.23;;;;;;;10.69;100.00;100965.84;6184060;23;20000;-83
2022/11/03 05:29:23;;;;;;;12.33;2.03;;;;;;;10.73;100.00;100951.69;6212058;23;20263;-83
2022/11/03 05:31:50;;;;;;;10.85;2.05;;;;;;;10.72;100.00;100936.66;6211300;23;20007;-84
2022/11/03 05:34:37;;;;;;;12.45;2.15;;;;;;;10.65;100.00;100937.94;6211859;23;20147;-85
2022/11/03 05:37:05;;;;;;;10.45;1.80;;;;;;;10.77;100.00;100943.13;6211267;23;20368;-83
2022/11/03 05:39:36;;;;;;;16.17;2.50;;;;;;;10.85;100.00;100926.56;6211745;23;20016;-83
2022/11/03 05:42:23;;;;;;;8.90;2.15;;;;;;;10.78;100.00;100931.31;6212072;23;20004;-82
2022/11/03 05:44:51;;;;;;;15.57;2.10;;;;;;;10.85;100.00;100929.25;6211088;23;20010;-83
2022/11/03 05:47:29;;;;;;;13.23;1.88;;;;;;;10.86;100.00;100928.97;6212049;23;20079;-83
2022/11/03 05:50:00;;;;;;;8.88;2.08;;;;;;;10.92;100.00;100919.13;6211403;23;20019;-83
2022/11/03 05:52:27;;;;;;;13.43;2.50;;;;;;;10.88;100.00;100916.13;6210265;23;20004;-83
2022/11/03 05:54:57;;;;;;;13.77;2.37;;;;;;;10.84;100.00;100917.72;6212103;23;20240;-83
2022/11/03 05:57:27;;;;;;;12.75;1.92;;;;;;;10.85;100.00;100916.66;6212075;23;20092;-83
2022/11/03 05:59:52;;;;;;;16.73;2.60;;;;;;;10.86;100.00;100904.06;6210784;23;20020;-83
2022/11/03 06:02:42;;;;;;;14.73;2.03;;;;;;;10.83;100.00;100905.41;6211659;23;20008;-81
2022/11/03 06:05:20;;;;;;;12.73;2.30;;;;;;;10.82;100.00;100894.91;6208258;23;20272;-83
2022/11/03 06:07:49;;;;;;;13.77;2.35;;;;;;;10.86;100.00;100899.50;6209881;23;20005;-83
2022/11/03 06:10:32;;;;;;;10.13;1.85;;;;;;;10.80;100.00;100892.50;6209551;23;20032;-83
2022/11/03 06:13:12;;;;;;;12.88;1.77;;;;;;;10.85;100.00;100889.88;6184736;23;20008;-84
2022/11/03 06:15:42;;;;;;;11.52;2.38;;;;;;;10.86;100.00;100882.63;6211885;23;20040;-84
2022/11/03 06:18:18;;;;;;;13.90;1.77;;;;;;;10.82;100.00;100884.19;6210505;23;20051;-84
2022/11/03 06:20:56;;;;;;;13.20;2.35;;;;;;;10.75;100.00;100881.75;6210304;23;20036;-85
2022/11/03 06:23:25;;;;;;;15.50;2.13;;;;;;;10.81;100.00;100885.25;6211540;23;20000;-84
2022/11/03 06:25:54;;;;;;;15.35;2.63;;;;;;;10.84;100.00;100887.41;6185130;23;20008;-83
2022/11/03 06:28:25;;;;;;;16.63;2.10;;;;;;;10.83;100.00;100892.00;6185611;23;20004;-86
2022/11/03 06:30:51;;;;;;;12.33;1.90;;;;;;;10.86;100.00;100874.56;6210929;23;20236;-85
2022/11/03 06:33:28;;;;;;;10.13;1.77;;;;;;;10.81;100.00;100850.41;6210703;23;20012;-87
2022/11/03 06:36:17;;;;;;;15.95;2.25;;;;;;;10.83;100.00;100869.72;6211711;23;20046;-86
2022/11/03 06:38:48;;;;;;;17.00;1.88;;;;;;;10.77;100.00;100870.78;6210331;23;20444;-86
2022/11/03 06:41:22;;;;;;;14.53;2.00;;;;;;;10.80;100.00;100872.91;6184185;23;20364;-86
2022/11/03 06:43:48;;;;;;;13.33;1.93;;;;;;;10.83;100.00;100869.72;6210918;23;20240;-86
2022/11/03 06:46:22;;;;;;;13.27;2.05;;;;;;;10.87;100.00;100862.78;6211755;23;20004;-86
2022/11/03 06:48:48;;;;;;;17.00;2.33;;;;;;;10.91;100.00;100866.56;6184143;23;20020;-86
2022/11/03 06:51:19;;;;;;;11.52;1.90;;;;;;;10.85;100.00;100859.56;6209742;23;20005;-86
2022/11/03 06:53:45;;;;;;;14.45;2.00;;;;;;;10.91;100.00;100872.72;6211179;23;20208;-86
2022/11/03 06:56:15;;;;;;;10.75;1.90;;;;;;;10.95;100.00;100850.75;6211399;23;20084;-87
2022/11/03 06:58:40;;;;;;;12.18;2.00;;;;;;;10.91;100.00;100855.84;6211015;23;20084;-86
2022/11/03 07:01:14;;;;;;;16.57;2.50;;;;;;;10.97;100.00;100860.16;6209743;23;20036;-86
2022/11/03 07:03:41;;;;;;;17.30;2.10;;;;;;;10.97;100.00;100857.47;6209598;23;20008;-86
2022/11/03 07:06:10;;;;;;;13.60;2.10;;;;;;;11.00;100.00;100862.31;6184870;23;20502;-85
2022/11/03 07:08:45;;;;;;;9.23;1.93;;;;;;;11.00;100.00;100853.47;6212296;23;20020;-85
2022/11/03 07:11:13;;;;;;;14.70;2.40;;;;;;;11.10;100.00;100863.47;6212686;23;20306;-87
2022/11/03 07:13:38;;;;;;;13.55;1.88;;;;;;;11.15;100.00;100853.56;6220232;23;20004;-86
2022/11/03 07:16:03;;;;;;;9.97;2.30;;;;;;;11.15;100.00;100847.38;6227983;23;20001;-88
2022/11/03 07:18:38;;;;;;;15.23;2.33;;;;;;;11.25;100.00;100844.75;6224842;23;20036;-88
2022/11/03 07:21:40;;;;;;;14.77;1.70;;;;;;;11.14;100.00;100816.25;6216670;23;20124;-85
2022/11/03 07:24:26;;;;;;;11.35;2.28;;;;;;;11.32;100.00;100839.16;6212738;23;20468;-86
2022/11/03 07:27:07;;;;;;;16.80;2.17;;;;;;;11.32;100.00;100836.47;6212161;23;20001;-86
2022/11/03 07:29:32;;;;;;;31.03;4.93;;;;;;;11.29;99.74;100835.13;6211690;23;20247;-85
2022/11/03 07:31:58;;;;;;;16.15;2.22;;;;;;;11.35;99.63;100828.69;6209782;23;20005;-85
2022/11/03 07:34:28;;;;;;;45.80;4.00;;;;;;;11.36;99.13;100824.16;6209925;23;20009;-84
2022/11/03 07:36:58;;;;;;;14.47;2.73;;;;;;;11.43;98.38;100821.22;6210154;23;20246;-85
2022/11/03 07:39:34;;;;;;;13.55;1.60;;;;;;;11.44;97.88;100822.81;6185098;23;20348;-84
2022/11/03 07:42:10;;;;;;;9.38;2.00;;;;;;;11.49;97.84;100820.97;6211320;23;20004;-85
2022/11/03 07:44:35;;;;;;;13.57;1.90;;;;;;;11.46;97.55;100802.69;6211617;23;20001;-86
2022/11/03 07:47:02;;;;;;;6.40;1.70;;;;;;;11.59;96.73;100825.56;6211628;23;20028;-85
2022/11/03 07:49:31;;;;;;;11.38;1.90;;;;;;;11.62;97.14;100819.66;6212155;23;20012;-85
2022/11/03 07:51:58;;;;;;;14.27;2.40;;;;;;;11.59;96.53;100812.13;6211276;23;20389;-85
2022/11/03 07:54:29;;;;;;;8.57;1.88;;;;;;;11.68;96.08;100822.38;6210793;23;20084;-85
2022/11/03 07:56:58;;;;;;;11.57;1.92;;;;;;;11.67;95.87;100813.50;6211102;23;20001;-85
2022/11/03 07:59:26;;;;;;;9.45;1.95;;;;;;;11.70;95.88;100830.94;6214521;23;20378;-86
2022/11/03 08:01:55;;;;;;;10.73;2.25;;;;;;;11.69;96.20;100823.94;6210794;23;20536;-87
2022/11/03 08:04:28;;;;;;;13.20;1.95;;;;;;;11.74;96.21;100832.84;6212070;23;20004;-89
2022/11/03 08:06:54;;;;;;;8.93;1.67;;;;;;;11.76;95.52;100829.88;6214170;23;20555;-92
2022/11/03 08:09:20;;;;;;;16.30;2.30;;;;;;;11.85;95.71;100819.41;6213387;23;20247;-91
2022/11/03 08:11:45;;;;;;;12.02;1.67;;;;;;;11.89;94.85;100821.31;6210703;23;20008;-88
2022/11/03 08:14:11;;;;;;;11.80;1.85;;;;;;;11.91;94.19;100796.88;6212710;23;20008;-89
2022/11/03 08:16:36;;;;;;;13.67;1.77;;;;;;;11.91;93.36;100792.31;6185524;23;20005;-89
2022/11/03 08:19:02;;;;;;;10.75;1.85;;;;;;;11.92;93.13;100787.75;6210581;23;20095;-88
2022/11/03 08:21:28;;;;;;;10.77;1.87;;;;;;;12.05;93.34;100799.88;6185193;23;20080;-88
2022/11/03 08:23:53;;;;;;;9.50;2.10;;;;;;;12.05;92.33;100781.88;6213574;23;20004;-88
2022/11/03 08:26:19;;;;;;;11.80;1.83;;;;;;;12.12;92.22;100781.59;6215068;23;20051;-89
2022/11/03 08:28:45;;;;;;;9.95;2.05;;;;;;;12.12;91.79;100768.19;6213609;23;20012;-88
2022/11/03 08:31:10;;;;;;;8.15;1.98;;;;;;;12.16;92.11;100766.56;6212924;23;20015;-88
2022/11/03 08:33:36;;;;;;;13.07;1.90;;;;;;;12.23;91.99;100759.03;6213820;23;20000;-88
2022/11/03 08:36:03;;;;;;;11.90;1.97;;;;;;;12.26;91.25;100761.19;6213678;23;20005;-88
2022/11/03 08:38:28;;;;;;;8.88;2.13;;;;;;;12.27;91.16;100743.97;6212674;23;20566;-88
2022/11/03 08:40:55;;;;;;;9.60;2.13;;;;;;;12.30;91.07;100742.66;6212809;23;20004;-88
2022/11/03 08:43:20;;;;;;;15.55;1.90;;;;;;;12.39;90.53;100732.16;6213470;23;20079;-88
2022/11/03 08:45:46;;;;;;;13.43;1.80;;;;;;;12.44;89.91;100723.28;6213713;23;20036;-88
2022/11/03 08:48:12;;;;;;;10.83;2.00;;;;;;;12.49;90.29;100716.00;6213355;23;20004;-87
2022/11/03 08:50:37;;;;;;;11.07;2.50;;;;;;;12.54;89.42;100707.94;6214727;23;20062;-87
2022/11/03 08:53:03;;;;;;;6.13;1.70;;;;;;;12.54;88.81;100702.56;6214091;23;20059;-87
2022/11/03 08:55:28;;;;;;;11.90;1.88;;;;;;;12.54;88.70;100685.59;6215380;23;20007;-88
2022/11/03 08:57:54;;;;;;;9.73;1.90;;;;;;;12.75;88.58;100701.66;6213246;23;20020;-88
2022/11/03 09:00:19;;;;;;;12.83;1.97;;;;;;;12.77;88.34;100692.25;6212273;23;20480;-87
2022/11/03 09:02:44;;;;;;;8.57;1.90;;;;;;;12.86;87.69;100687.09;6213178;23;20015;-87
2022/11/03 09:05:11;;;;;;;8.40;2.03;;;;;;;12.95;87.16;100681.94;6212866;23;20381;-86
2022/11/03 09:07:40;;;;;;;10.60;1.90;;;;;;;12.94;86.77;100658.84;6213030;23;20020;-87
2022/11/03 09:10:08;;;;;;;10.18;2.03;;;;;;;13.08;86.66;100661.69;6186410;23;20008;-88
2022/11/03 09:12:33;;;;;;;8.88;1.98;;;;;;;13.11;85.74;100661.94;6186592;23;20017;-88
2022/11/03 09:15:00;;;;;;;14.93;2.08;;;;;;;13.17;85.65;100650.06;6213422;23;20406;-88
2022/11/03 09:17:26;;;;;;;8.73;1.63;;;;;;;13.18;85.53;100645.50;6212835;23;20058;-87
2022/11/03 09:19:51;;;;;;;8.03;2.17;;;;;;;13.14;85.58;100639.88;6211904;23;20892;-87
2022/11/03 09:22:16;;;;;;;11.73;2.03;;;;;;;13.16;85.53;100643.06;6212928;23;20099;-88
2022/11/03 09:24:43;;;;;;;9.20;2.20;;;;;;;13.14;85.40;100633.69;6212537;23;20000;-88
2022/11/03 09:27:14;;;;;;;6.35;1.70;;;;;;;13.07;85.65;100606.28;6212813;23;20020;-88
2022/11/03 09:29:39;;;;;;;10.30;2.10;;;;;;;13.23;85.76;100604.28;6212279;23;20357;-88
2022/11/03 09:32:05;;;;;;;10.33;1.67;;;;;;;13.23;85.45;100588.16;6211847;23;20012;-88
2022/11/03 09:34:31;;;;;;;14.23;2.40;;;;;;;13.30;85.28;100591.34;6213299;23;20008;-87
2022/11/03 09:36:58;;;;;;;7.20;1.70;;;;;;;13.32;84.71;100578.41;6212550;23;20516;-87
2022/11/03 09:39:23;;;;;;;8.52;1.90;;;;;;;13.44;85.02;100578.84;6213855;23;20065;-88
2022/11/03 09:41:49;;;;;;;13.43;2.20;;;;;;;13.42;83.80;100581.03;6213393;23;20420;-88
2022/11/03 09:44:15;;;;;;;8.30;2.00;;;;;;;13.41;83.99;100573.25;6212249;23;20000;-88
2022/11/03 09:46:40;;;;;;;9.88;1.90;;;;;;;13.34;84.12;100568.13;6214109;23;20011;-87
2022/11/03 09:49:06;;;;;;;10.90;2.20;;;;;;;13.37;84.35;100575.66;6232572;23;20023;-88
2022/11/03 09:51:34;;;;;;;7.35;1.65;;;;;;;13.32;84.32;100563.03;6230281;23;20050;-90
2022/11/03 09:54:02;;;;;;;7.95;1.90;;;;;;;13.32;83.80;100556.88;6214642;23;20369;-89
2022/11/03 09:56:28;;;;;;;6.75;2.13;;;;;;;13.30;84.21;100550.97;6213104;23;20005;-89
2022/11/03 09:58:53;;;;;;;6.37;1.90;;;;;;;13.28;83.49;100547.75;6213389;23;20004;-88
2022/11/03 10:01:19;;;;;;;7.63;1.73;;;;;;;13.24;84.50;100546.72;6223478;23;20235;-90
2022/11/03 10:03:44;;;;;;;11.40;1.87;;;;;;;13.22;83.80;100538.09;6239130;23;20011;-89
2022/11/03 10:06:11;;;;;;;9.07;1.83;;;;;;;13.20;83.51;100534.91;6236703;23;20011;-88
2022/11/03 10:08:38;;;;;;;9.30;1.77;;;;;;;13.19;83.60;100526.03;6233986;23;20031;-89
2022/11/03 10:11:05;;;;;;;9.65;1.70;;;;;;;13.22;83.96;100536.25;6228984;22;20020;-89
2022/11/03 10:13:38;;;;;;;7.60;1.70;;;;;;;13.17;83.21;100522.81;6215011;23;20001;-89
2022/11/03 10:16:07;;;;;;;7.90;1.75;;;;;;;13.21;83.81;100517.66;6217287;23;20004;-88
2022/11/03 10:18:33;;;;;;;7.38;1.58;;;;;;;13.15;83.45;100517.72;6215303;23;20004;-89
2022/11/03 10:21:04;;;;;;;5.47;1.47;;;;;;;13.14;83.88;100518.00;6213221;23;20008;-89
2022/11/03 10:23:29;;;;;;;9.00;1.63;;;;;;;13.09;83.22;100502.72;6214290;23;20241;-89
2022/11/03 10:26:07;;;;;;;7.28;1.80;;;;;;;13.13;84.31;100503.75;6212070;23;20004;-89
2022/11/03 10:28:32;;;;;;;5.33;1.67;;;;;;;13.12;83.87;100502.16;6211486;23;20043;-89
2022/11/03 10:30:59;;;;;;;6.90;1.77;;;;;;;13.11;82.98;100505.94;6212124;23;20368;-89
2022/11/03 10:33:30;;;;;;;7.60;1.63;;;;;;;13.13;83.71;100487.63;6213630;23;20024;-89
2022/11/03 10:36:00;;;;;;;11.75;1.90;;;;;;;13.10;83.20;100488.19;6214962;23;20011;-89
2022/11/03 10:38:27;;;;;;;7.97;2.13;;;;;;;13.13;83.31;100473.34;6216801;23;20001;-89
2022/11/03 10:40:54;;;;;;;7.18;1.55;;;;;;;13.28;82.79;100483.19;6187222;23;20067;-89
2022/11/03 10:43:19;;;;;;;8.38;1.80;;;;;;;13.38;82.00;100482.28;6216780;23;20009;-89
2022/11/03 10:45:45;;;;;;;9.57;1.77;;;;;;;13.44;81.56;100468.50;6215772;23;20448;-89
2022/11/03 10:48:10;;;;;;;7.10;1.75;;;;;;;13.59;81.71;100461.34;6215151;23;20011;-89
2022/11/03 10:50:38;;;;;;;11.57;1.60;;;;;;;13.77;79.57;100474.06;6214454;23;20034;-90
2022/11/03 10:53:04;;;;;;;8.75;1.77;;;;;;;14.00;79.60;100466.22;6214012;23;20451;-90
2022/11/03 10:55:29;;;;;;;6.53;1.60;;;;;;;14.08;77.94;100472.88;6217321;23;20005;-89
2022/11/03 10:57:56;;;;;;;12.03;2.27;;;;;;;14.11;77.97;100464.22;6222649;23;20013;-90
2022/11/03 11:00:23;;;;;;;7.70;1.75;;;;;;;14.24;76.60;100468.88;6227805;23;20008;-90
2022/11/03 11:02:50;;;;;;;9.57;1.70;;;;;;;14.17;76.30;100454.16;6201409;23;20380;-89
2022/11/03 11:05:23;;;;;;;9.60;1.38;;;;;;;14.17;76.65;100440.69;6234403;23;20020;-87
2022/11/03 11:07:53;;;;;;;6.43;1.63;;;;;;;14.24;75.97;100438.44;6229550;23;20009;-90
2022/11/03 11:10:27;;;;;;;6.33;1.87;;;;;;;14.34;75.66;100432.88;6228948;23;20004;-91
2022/11/03 11:13:24;;;;;;;10.00;1.80;;;;;;;14.48;75.73;100443.72;6216475;23;20301;-88
2022/11/03 11:15:58;;;;;;;7.75;1.50;;;;;;;14.48;74.89;100435.66;6213527;23;20015;-89
2022/11/03 11:18:26;;;;;;;5.63;1.70;;;;;;;14.55;74.23;100443.34;6212320;23;20012;-89
2022/11/03 11:20:52;;;;;;;7.25;1.70;;;;;;;14.51;74.22;100426.97;6211694;23;20005;-92
2022/11/03 11:23:27;;;;;;;9.73;2.28;;;;;;;14.56;74.03;100434.19;6186009;23;20091;-89
2022/11/03 11:26:04;;;;;;;6.57;1.80;;;;;;;14.56;73.78;100423.38;6212288;23;20080;-90
2022/11/03 11:28:30;;;;;;;7.68;1.92;;;;;;;14.47;73.72;100401.69;6216178;23;20028;-90
2022/11/03 11:30:57;;;;;;;9.33;2.00;;;;;;;14.56;73.50;100409.91;6216116;23;20424;-89
2022/11/03 11:33:24;;;;;;;7.05;1.85;;;;;;;14.42;72.93;100396.38;6187663;23;20005;-92
2022/11/03 11:35:49;;;;;;;11.38;1.98;;;;;;;14.47;73.43;100392.78;6218844;23;20087;-89
2022/11/03 11:38:54;;;;;;;11.07;2.13;;;;;;;14.47;73.11;100384.72;6220377;23;20004;-90
2022/11/03 11:41:38;;;;;;;12.00;1.88;;;;;;;14.62;73.38;100379.06;6216694;23;20024;-90
2022/11/03 11:44:38;;;;;;;9.55;2.20;;;;;;;14.70;72.77;100372.22;6196287;23;20012;-90
2022/11/03 11:47:20;;;;;;;7.90;1.67;;;;;;;14.67;72.43;100362.78;6220135;23;20023;-89
2022/11/03 11:49:46;;;;;;;7.60;1.90;;;;;;;14.72;72.03;100355.75;6195212;23;20251;-90